Time;durP1;ratioP1;P1;durP2;ratioP2;P2;SDS_P1;SDS_P2;PMS_P1;PMS_P2;Temp;Humidity;BMP_temperature;BMP_pressure;BME280_temperature;BME280_humidity;BME280_pressure;Samples;Min_cycle;Max_cycle;Signal;HPM_P1;HPM_P2
2022/09/09 00:00:31;;;;;;;;;;;;;;;;;;5092844;28;20401;-77
2022/09/09 00:02:56;;;;;;;;;;;;;;;;;;5092435;28;19912;-76
2022/09/09 00:05:22;;;;;;;;;;;;;;;;;;5091624;28;19908;-77
2022/09/09 00:07:48;;;;;;;;;;;;;;;;;;5092673;28;19919;-76
2022/09/09 00:10:13;;;;;;;;;;;;;;;;;;5092950;28;19912;-77
2022/09/09 00:12:39;;;;;;;;;;;;;;;;;;5090543;28;19919;-77
2022/09/09 00:15:04;;;;;;;;;;;;;;;;;;5087905;28;19915;-77
2022/09/09 00:17:30;;;;;;;;;;;;;;;;;;5091020;28;21214;-77
2022/09/09 00:19:55;;;;;;;;;;;;;;;;;;5090317;28;20358;-77
2022/09/09 00:22:21;;;;;;;;;;;;;;;;;;5088186;28;19985;-77
2022/09/09 00:24:46;;;;;;;;;;;;;;;;;;5092592;28;19908;-77
2022/09/09 00:27:12;;;;;;;;;;;;;;;;;;5072794;28;19966;-78
2022/09/09 00:29:37;;;;;;;;;;;;;;;;;;5034361;28;19917;-78
2022/09/09 00:32:03;;;;;;;;;;;;;;;;;;5031632;28;20285;-76
2022/09/09 00:34:28;;;;;;;;;;;;;;;;;;5037583;28;19962;-77
2022/09/09 00:36:53;;;;;;;;;;;;;;;;;;5054196;28;19912;-77
2022/09/09 00:39:19;;;;;;;;;;;;;;;;;;5037245;28;19908;-76
2022/09/09 00:41:44;;;;;;;;;;;;;;;;;;5072165;28;19912;-77
2022/09/09 00:44:11;;;;;;;;;;;;;;;;;;5041051;28;19913;-77
2022/09/09 00:46:36;;;;;;;;;;;;;;;;;;5071578;28;19960;-77
2022/09/09 00:49:02;;;;;;;;;;;;;;;;;;5052731;28;19908;-76
2022/09/09 00:51:27;;;;;;;;;;;;;;;;;;5071443;28;19923;-75
2022/09/09 00:53:53;;;;;;;;;;;;;;;;;;5072140;28;19942;-77
2022/09/09 00:56:21;;;;;;;;;;;;;;;;;;5056597;28;19916;-76
2022/09/09 00:58:46;;;;;;;;;;;;;;;;;;5071910;28;20021;-77
2022/09/09 01:01:12;;;;;;;;;;;;;;;;;;5053995;28;19912;-76
2022/09/09 01:03:38;;;;;;;;;;;;;;;;;;5071728;28;20275;-77
2022/09/09 01:06:03;;;;;;;;;;;;;;;;;;5053610;28;19912;-77
2022/09/09 01:08:29;;;;;;;;;;;;;;;;;;5071843;28;19908;-76
2022/09/09 01:10:54;;;;;;;;;;;;;;;;;;5057821;28;19916;-77
2022/09/09 01:13:23;;;;;;;;;;;;;;;;;;5051673;28;20379;-76
2022/09/09 01:15:49;;;;;;;;;;;;;;;;;;5058039;28;19974;-78
2022/09/09 01:18:14;;;;;;;;;;;;;;;;;;5075559;28;19912;-77
2022/09/09 01:20:42;;;;;;;;;;;;;;;;;;5057172;28;19912;-78
2022/09/09 01:23:08;;;;;;;;;;;;;;;;;;5052964;28;20439;-78
2022/09/09 01:25:36;;;;;;;;;;;;;;;;;;5054152;28;19912;-78
2022/09/09 01:28:06;;;;;;;;;;;;;;;;;;5055577;28;20057;-78
2022/09/09 01:30:31;;;;;;;;;;;;;;;;;;5051009;28;19955;-76
2022/09/09 01:33:00;;;;;;;;;;;;;;;;;;5057952;28;19909;-77
2022/09/09 01:35:25;;;;;;;;;;;;;;;;;;5040202;28;19912;-76
2022/09/09 01:37:51;;;;;;;;;;;;;;;;;;5057559;28;19912;-76
2022/09/09 01:40:17;;;;;;;;;;;;;;;;;;5040371;28;19908;-77
2022/09/09 01:42:42;;;;;;;;;;;;;;;;;;5056513;28;19966;-76
2022/09/09 01:45:08;;;;;;;;;;;;;;;;;;5040950;28;19915;-76
2022/09/09 01:47:33;;;;;;;;;;;;;;;;;;5074915;28;20402;-76
2022/09/09 01:50:08;;;;;;;;;;;;;;;;;;5048784;28;19921;-76
2022/09/09 01:52:34;;;;;;;;;;;;;;;;;;5043753;28;19912;-76
2022/09/09 01:54:59;;;;;;;;;;;;;;;;;;5049389;28;19913;-77
2022/09/09 01:57:30;;;;;;;;;;;;;;;;;;5037423;28;20391;-76
2022/09/09 01:59:55;;;;;;;;;;;;;;;;;;5057070;28;19997;-77
2022/09/09 02:02:21;;;;;;;;;;;;;;;;;;5055348;28;19908;-76
2022/09/09 02:04:56;;;;;;;;;;;;;;;;;;5038086;28;19965;-76
2022/09/09 02:07:23;;;;;;;;;;;;;;;;;;5040897;28;19919;-76
2022/09/09 02:09:49;;;;;;;;;;;;;;;;;;5056812;28;19912;-76
2022/09/09 02:12:14;;;;;;;;;;;;;;;;;;5057240;28;19912;-77
2022/09/09 02:14:49;;;;;;;;;;;;;;;;;;5057543;28;19909;-77
2022/09/09 02:17:14;;;;;;;;;;;;;;;;;;5057058;28;20408;-77
2022/09/09 02:19:54;;;;;;;;;;;;;;;;;;5042355;28;19914;-77
2022/09/09 02:22:34;;;;;;;;;;;;;;;;;;5055280;28;19912;-77
2022/09/09 02:25:01;;;;;;;;;;;;;;;;;;5056691;28;19916;-77
2022/09/09 02:27:28;;;;;;;;;;;;;;;;;;5077292;28;19951;-77
2022/09/09 02:29:54;;;;;;;;;;;;;;;;;;5094687;28;20367;-77
2022/09/09 02:32:30;;;;;;;;;;;;;;;;;;5093178;28;19955;-77
2022/09/09 02:34:56;;;;;;;;;;;;;;;;;;5092912;28;20646;-77
2022/09/09 02:37:21;;;;;;;;;;;;;;;;;;5093195;28;20010;-77
2022/09/09 02:39:50;;;;;;;;;;;;;;;;;;5090285;28;19922;-76
2022/09/09 02:42:19;;;;;;;;;;;;;;;;;;5088054;28;19931;-77
2022/09/09 02:44:44;;;;;;;;;;;;;;;;;;5094546;28;19912;-77
2022/09/09 02:47:10;;;;;;;;;;;;;;;;;;5092669;28;19919;-77
2022/09/09 02:49:35;;;;;;;;;;;;;;;;;;5092826;28;19961;-77
2022/09/09 02:52:02;;;;;;;;;;;;;;;;;;5092632;28;19951;-77
2022/09/09 02:54:31;;;;;;;;;;;;;;;;;;5092172;28;19964;-78
2022/09/09 02:57:00;;;;;;;;;;;;;;;;;;5083130;28;19969;-77
2022/09/09 02:59:33;;;;;;;;;;;;;;;;;;5092651;28;19912;-78
2022/09/09 03:01:59;;;;;;;;;;;;;;;;;;5091422;28;19912;-77
2022/09/09 03:04:24;;;;;;;;;;;;;;;;;;5093888;28;19908;-77
2022/09/09 03:06:50;;;;;;;;;;;;;;;;;;5076060;28;20714;-77
2022/09/09 03:09:18;;;;;;;;;;;;;;;;;;5092062;28;19931;-77
2022/09/09 03:11:44;;;;;;;;;;;;;;;;;;5093056;28;20730;-77
2022/09/09 03:14:11;;;;;;;;;;;;;;;;;;5092144;28;19912;-77
2022/09/09 03:16:36;;;;;;;;;;;;;;;;;;5091295;28;20003;-77
2022/09/09 03:19:02;;;;;;;;;;;;;;;;;;5091927;28;19912;-77
2022/09/09 03:21:27;;;;;;;;;;;;;;;;;;5085065;28;19918;-77
2022/09/09 03:23:53;;;;;;;;;;;;;;;;;;5089689;28;19951;-76
2022/09/09 03:26:19;;;;;;;;;;;;;;;;;;5089579;28;20378;-77
2022/09/09 03:28:46;;;;;;;;;;;;;;;;;;5053977;28;19948;-77
2022/09/09 03:31:14;;;;;;;;;;;;;;;;;;5055239;28;19927;-77
2022/09/09 03:33:42;;;;;;;;;;;;;;;;;;5054524;28;20002;-77
2022/09/09 03:36:10;;;;;;;;;;;;;;;;;;5055250;28;19999;-76
2022/09/09 03:38:35;;;;;;;;;;;;;;;;;;5051756;28;20007;-77
2022/09/09 03:41:01;;;;;;;;;;;;;;;;;;5054896;28;19962;-77
2022/09/09 03:43:27;;;;;;;;;;;;;;;;;;5034805;28;19909;-77
2022/09/09 03:45:52;;;;;;;;;;;;;;;;;;5047436;28;20003;-77
2022/09/09 03:48:18;;;;;;;;;;;;;;;;;;5038090;28;19916;-78
2022/09/09 03:50:44;;;;;;;;;;;;;;;;;;5032480;28;19920;-76
2022/09/09 03:53:09;;;;;;;;;;;;;;;;;;5054126;28;19931;-76
2022/09/09 03:55:35;;;;;;;;;;;;;;;;;;5054822;28;19912;-76
2022/09/09 03:58:00;;;;;;;;;;;;;;;;;;5043972;28;19912;-78
2022/09/09 04:00:26;;;;;;;;;;;;;;;;;;5054582;28;19912;-78
2022/09/09 04:02:55;;;;;;;;;;;;;;;;;;5054711;28;19994;-77
2022/09/09 04:05:20;;;;;;;;;;;;;;;;;;5054662;28;19923;-76
2022/09/09 04:07:47;;;;;;;;;;;;;;;;;;5047309;28;19908;-78
2022/09/09 04:10:13;;;;;;;;;;;;;;;;;;5046716;28;19922;-77
2022/09/09 04:12:39;;;;;;;;;;;;;;;;;;5048397;28;19995;-77
2022/09/09 04:15:04;;;;;;;;;;;;;;;;;;5037685;28;20411;-77
2022/09/09 04:17:30;;;;;;;;;;;;;;;;;;5054115;28;19913;-76
2022/09/09 04:19:56;;;;;;;;;;;;;;;;;;5054738;28;20295;-77
2022/09/09 04:22:22;;;;;;;;;;;;;;;;;;5053299;28;19915;-77
2022/09/09 04:24:48;;;;;;;;;;;;;;;;;;5054325;28;19912;-77
2022/09/09 04:27:13;;;;;;;;;;;;;;;;;;5070848;28;19916;-75
2022/09/09 04:29:39;;;;;;;;;;;;;;;;;;5089674;28;19920;-76
2022/09/09 04:32:05;;;;;;;;;;;;;;;;;;5079767;28;19962;-80
2022/09/09 04:34:31;;;;;;;;;;;;;;;;;;5088703;28;19916;-81
2022/09/09 04:36:56;;;;;;;;;;;;;;;;;;5080226;28;19916;-78
2022/09/09 04:39:22;;;;;;;;;;;;;;;;;;5076267;28;19919;-78
2022/09/09 04:41:48;;;;;;;;;;;;;;;;;;5092127;28;20371;-77
2022/09/09 04:44:13;;;;;;;;;;;;;;;;;;5090192;28;19911;-77
2022/09/09 04:46:41;;;;;;;;;;;;;;;;;;5095953;28;19908;-78
2022/09/09 04:49:06;;;;;;;;;;;;;;;;;;5078106;28;20275;-77
2022/09/09 04:51:32;;;;;;;;;;;;;;;;;;5079071;28;19955;-77
2022/09/09 04:53:58;;;;;;;;;;;;;;;;;;5067287;28;20000;-79
2022/09/09 04:56:23;;;;;;;;;;;;;;;;;;5087328;28;20027;-78
2022/09/09 04:58:55;;;;;;;;;;;;;;;;;;5089867;28;20317;-77
2022/09/09 05:01:24;;;;;;;;;;;;;;;;;;5087661;28;19920;-77
2022/09/09 05:03:51;;;;;;;;;;;;;;;;;;5080277;28;20381;-77
2022/09/09 05:06:20;;;;;;;;;;;;;;;;;;5090060;28;20294;-77
2022/09/09 05:08:49;;;;;;;;;;;;;;;;;;5091117;28;20422;-78
2022/09/09 05:11:16;;;;;;;;;;;;;;;;;;5090834;28;19951;-76
2022/09/09 05:13:42;;;;;;;;;;;;;;;;;;5090301;28;19943;-76
2022/09/09 05:16:11;;;;;;;;;;;;;;;;;;5090176;28;19912;-76
2022/09/09 05:18:36;;;;;;;;;;;;;;;;;;5091323;28;19915;-78
2022/09/09 05:21:02;;;;;;;;;;;;;;;;;;5087480;28;19920;-76
2022/09/09 05:23:27;;;;;;;;;;;;;;;;;;5070060;28;19908;-78
2022/09/09 05:25:55;;;;;;;;;;;;;;;;;;5090123;28;19957;-78
2022/09/09 05:28:20;;;;;;;;;;;;;;;;;;5076202;28;20027;-77
2022/09/09 05:30:45;;;;;;;;;;;;;;;;;;5052977;28;20015;-78
2022/09/09 05:33:11;;;;;;;;;;;;;;;;;;5080693;28;20376;-77
2022/09/09 05:35:38;;;;;;;;;;;;;;;;;;5053254;28;19912;-79
2022/09/09 05:38:03;;;;;;;;;;;;;;;;;;5053159;28;19968;-77
2022/09/09 05:40:28;;;;;;;;;;;;;;;;;;5053428;28;19952;-76
2022/09/09 05:42:54;;;;;;;;;;;;;;;;;;5052619;28;19970;-77
2022/09/09 05:45:20;;;;;;;;;;;;;;;;;;5071274;28;19916;-77
2022/09/09 05:47:45;;;;;;;;;;;;;;;;;;5041022;28;19908;-78
2022/09/09 05:50:14;;;;;;;;;;;;;;;;;;5046148;28;20426;-77
2022/09/09 05:52:40;;;;;;;;;;;;;;;;;;5053117;28;19970;-77
2022/09/09 05:55:05;;;;;;;;;;;;;;;;;;5042170;28;19913;-77
2022/09/09 05:57:31;;;;;;;;;;;;;;;;;;5060036;28;19912;-77
2022/09/09 05:59:56;;;;;;;;;;;;;;;;;;5042844;28;19962;-77
2022/09/09 06:02:21;;;;;;;;;;;;;;;;;;5041788;28;20259;-78
2022/09/09 06:04:47;;;;;;;;;;;;;;;;;;5048824;28;19913;-78
2022/09/09 06:07:14;;;;;;;;;;;;;;;;;;5058666;28;19916;-78
2022/09/09 06:09:41;;;;;;;;;;;;;;;;;;5057349;28;19916;-78
2022/09/09 06:12:06;;;;;;;;;;;;;;;;;;5056140;28;19915;-77
2022/09/09 06:14:34;;;;;;;;;;;;;;;;;;5056540;28;19938;-78
2022/09/09 06:17:01;;;;;;;;;;;;;;;;;;5056296;28;20406;-77
2022/09/09 06:19:28;;;;;;;;;;;;;;;;;;5051525;28;19912;-77
2022/09/09 06:21:56;;;;;;;;;;;;;;;;;;5054491;28;19916;-76
2022/09/09 06:24:22;;;;;;;;;;;;;;;;;;5070754;28;19912;-77
2022/09/09 06:26:47;;;;;;;;;;;;;;;;;;5065634;28;20318;-77
2022/09/09 06:29:18;;;;;;;;;;;;;;;;;;5093116;28;20002;-76
2022/09/09 06:31:44;;;;;;;;;;;;;;;;;;5086295;28;20337;-78
2022/09/09 06:34:20;;;;;;;;;;;;;;;;;;5090061;28;19961;-78
2022/09/09 06:36:49;;;;;;;;;;;;;;;;;;5093562;28;19912;-77
2022/09/09 06:39:15;;;;;;;;;;;;;;;;;;5093273;28;19997;-77
2022/09/09 06:41:42;;;;;;;;;;;;;;;;;;5088419;28;19911;-77
2022/09/09 06:44:13;;;;;;;;;;;;;;;;;;5093136;28;19987;-78
2022/09/09 06:46:40;;;;;;;;;;;;;;;;;;5087028;28;19916;-77
2022/09/09 06:49:07;;;;;;;;;;;;;;;;;;5076902;28;19908;-77
2022/09/09 06:51:33;;;;;;;;;;;;;;;;;;5093215;28;19968;-78
2022/09/09 06:53:58;;;;;;;;;;;;;;;;;;5094419;28;20363;-78
2022/09/09 06:56:24;;;;;;;;;;;;;;;;;;5092593;28;19916;-78
2022/09/09 06:58:51;;;;;;;;;;;;;;;;;;5076837;28;19960;-78
2022/09/09 07:01:23;;;;;;;;;;;;;;;;;;5092539;28;19911;-77
2022/09/09 07:03:49;;;;;;;;;;;;;;;;;;5093045;28;19919;-77
2022/09/09 07:06:16;;;;;;;;;;;;;;;;;;5092864;28;20454;-75
2022/09/09 07:08:42;;;;;;;;;;;;;;;;;;5091733;28;20442;-78
2022/09/09 07:11:07;;;;;;;;;;;;;;;;;;5087751;28;19912;-77
2022/09/09 07:13:34;;;;;;;;;;;;;;;;;;5065996;28;19966;-77
2022/09/09 07:16:00;;;;;;;;;;;;;;;;;;5092441;28;19952;-76
2022/09/09 07:18:26;;;;;;;;;;;;;;;;;;5091817;28;19951;-78
2022/09/09 07:20:51;;;;;;;;;;;;;;;;;;5075684;28;20385;-78
2022/09/09 07:23:17;;;;;;;;;;;;;;;;;;5084665;28;19962;-79
2022/09/09 07:25:43;;;;;;;;;;;;;;;;;;5091830;28;20378;-78
2022/09/09 07:28:08;;;;;;;;;;;;;;;;;;5092236;28;19915;-78
2022/09/09 07:30:34;;;;;;;;;;;;;;;;;;5075378;28;19916;-78
2022/09/09 07:32:59;;;;;;;;;;;;;;;;;;5093922;28;19951;-78
2022/09/09 07:35:25;;;;;;;;;;;;;;;;;;5093839;28;20328;-80
2022/09/09 07:37:50;;;;;;;;;;;;;;;;;;5092926;28;20418;-80
2022/09/09 07:40:15;;;;;;;;;;;;;;;;;;5093068;28;20382;-77
2022/09/09 07:42:41;;;;;;;;;;;;;;;;;;5089756;28;19911;-79
2022/09/09 07:45:06;;;;;;;;;;;;;;;;;;5091974;28;19943;-77
2022/09/09 07:47:32;;;;;;;;;;;;;;;;;;5092265;28;20388;-79
2022/09/09 07:49:58;;;;;;;;;;;;;;;;;;5089108;28;20040;-77
2022/09/09 07:52:28;;;;;;;;;;;;;;;;;;5086890;28;19959;-78
2022/09/09 07:54:57;;;;;;;;;;;;;;;;;;5074420;28;19970;-77
2022/09/09 07:57:23;;;;;;;;;;;;;;;;;;5088040;28;20351;-77
2022/09/09 07:59:52;;;;;;;;;;;;;;;;;;5088906;28;20065;-78
2022/09/09 08:02:17;;;;;;;;;;;;;;;;;;5092277;28;19912;-78
2022/09/09 08:04:43;;;;;;;;;;;;;;;;;;5075157;28;20325;-77
2022/09/09 08:07:10;;;;;;;;;;;;;;;;;;5079090;28;20275;-78
2022/09/09 08:09:44;;;;;;;;;;;;;;;;;;5070955;28;20294;-77
2022/09/09 08:12:16;;;;;;;;;;;;;;;;;;5085650;28;19965;-78
2022/09/09 08:14:41;;;;;;;;;;;;;;;;;;5073150;28;19916;-78
2022/09/09 08:17:07;;;;;;;;;;;;;;;;;;5090871;28;19998;-78
2022/09/09 08:19:36;;;;;;;;;;;;;;;;;;5092081;28;20459;-79
2022/09/09 08:22:03;;;;;;;;;;;;;;;;;;5089797;28;19920;-77
2022/09/09 08:24:29;;;;;;;;;;;;;;;;;;5092044;28;19912;-78
2022/09/09 08:26:56;;;;;;;;;;;;;;;;;;5074806;28;19927;-77
2022/09/09 08:29:22;;;;;;;;;;;;;;;;;;5092012;28;20291;-76
2022/09/09 08:31:48;;;;;;;;;;;;;;;;;;5090611;28;19909;-78
2022/09/09 08:34:13;;;;;;;;;;;;;;;;;;5075563;28;20002;-79
2022/09/09 08:36:39;;;;;;;;;;;;;;;;;;5074360;28;20299;-79
2022/09/09 08:39:05;;;;;;;;;;;;;;;;;;5091586;28;19912;-78
2022/09/09 08:41:30;;;;;;;;;;;;;;;;;;5090296;28;19912;-77
2022/09/09 08:43:56;;;;;;;;;;;;;;;;;;5091175;28;19912;-77
2022/09/09 08:46:21;;;;;;;;;;;;;;;;;;5087503;28;20375;-79
2022/09/09 08:48:47;;;;;;;;;;;;;;;;;;5069338;28;19913;-78
2022/09/09 08:51:12;;;;;;;;;;;;;;;;;;5085171;28;19923;-79
2022/09/09 08:53:38;;;;;;;;;;;;;;;;;;5083195;28;19919;-79
2022/09/09 08:56:04;;;;;;;;;;;;;;;;;;5083785;28;19908;-80
2022/09/09 08:58:40;;;;;;;;;;;;;;;;;;5091736;28;19911;-79
2022/09/09 09:01:06;;;;;;;;;;;;;;;;;;5086062;28;20444;-78
2022/09/09 09:03:32;;;;;;;;;;;;;;;;;;5087960;28;19908;-78
2022/09/09 09:05:59;;;;;;;;;;;;;;;;;;5091867;28;19969;-80
2022/09/09 09:08:24;;;;;;;;;;;;;;;;;;5092805;28;20077;-78
2022/09/09 09:10:50;;;;;;;;;;;;;;;;;;5093998;28;19983;-81
2022/09/09 09:13:20;;;;;;;;;;;;;;;;;;5089405;28;19908;-78
2022/09/09 09:15:46;;;;;;;;;;;;;;;;;;5092516;28;19912;-82
2022/09/09 09:18:12;;;;;;;;;;;;;;;;;;5074849;28;19908;-78
2022/09/09 09:20:38;;;;;;;;;;;;;;;;;;5091867;28;20397;-77
2022/09/09 09:23:04;;;;;;;;;;;;;;;;;;5084967;28;20327;-78
2022/09/09 09:25:30;;;;;;;;;;;;;;;;;;5089723;28;19958;-80
2022/09/09 09:27:56;;;;;;;;;;;;;;;;;;5091767;28;19965;-79
2022/09/09 09:30:22;;;;;;;;;;;;;;;;;;5092585;28;19977;-77
2022/09/09 09:32:47;;;;;;;;;;;;;;;;;;5095636;28;20332;-78
2022/09/09 09:35:13;;;;;;;;;;;;;;;;;;5096930;28;19935;-79
2022/09/09 09:37:40;;;;;;;;;;;;;;;;;;5095390;28;19912;-78
2022/09/09 09:40:05;;;;;;;;;;;;;;;;;;5078365;28;20444;-77
2022/09/09 09:42:31;;;;;;;;;;;;;;;;;;5094710;28;20401;-78
2022/09/09 09:44:56;;;;;;;;;;;;;;;;;;5091773;28;19916;-79
2022/09/09 09:47:23;;;;;;;;;;;;;;;;;;5094754;28;19908;-77
2022/09/09 09:50:08;;;;;;;;;;;;;;;;;;5093628;28;20294;-78
2022/09/09 09:52:36;;;;;;;;;;;;;;;;;;5094583;28;19919;-79
2022/09/09 09:55:02;;;;;;;;;;;;;;;;;;5094560;28;20306;-76
2022/09/09 09:57:29;;;;;;;;;;;;;;;;;;5094700;28;19916;-77
2022/09/09 09:59:54;;;;;;;;;;;;;;;;;;5094514;28;19998;-78
2022/09/09 10:02:26;;;;;;;;;;;;;;;;;;5094162;28;19912;-77
2022/09/09 10:05:03;;;;;;;;;;;;;;;;;;5078690;28;19911;-78
2022/09/09 10:07:28;;;;;;;;;;;;;;;;;;5094668;28;20294;-78
2022/09/09 10:09:54;;;;;;;;;;;;;;;;;;5095902;28;19986;-78
2022/09/09 10:12:19;;;;;;;;;;;;;;;;;;5096264;28;19920;-77
2022/09/09 10:14:44;;;;;;;;;;;;;;;;;;5090692;28;19908;-79
2022/09/09 10:17:17;;;;;;;;;;;;;;;;;;5080915;28;20023;-78
2022/09/09 10:19:43;;;;;;;;;;;;;;;;;;5089542;28;19973;-78
2022/09/09 10:22:09;;;;;;;;;;;;;;;;;;5087427;28;20429;-78
2022/09/09 10:24:35;;;;;;;;;;;;;;;;;;5096523;28;19912;-77
2022/09/09 10:27:00;;;;;;;;;;;;;;;;;;5077804;28;20402;-78
2022/09/09 10:29:26;;;;;;;;;;;;;;;;;;5096597;28;20004;-78
2022/09/09 10:31:51;;;;;;;;;;;;;;;;;;5094539;28;20976;-78
2022/09/09 10:34:17;;;;;;;;;;;;;;;;;;5095162;28;19912;-79
2022/09/09 10:36:42;;;;;;;;;;;;;;;;;;5093587;28;19908;-79
2022/09/09 10:39:07;;;;;;;;;;;;;;;;;;5096365;28;19922;-77
2022/09/09 10:41:33;;;;;;;;;;;;;;;;;;5093303;28;19955;-79
2022/09/09 10:43:58;;;;;;;;;;;;;;;;;;5077446;28;19962;-78
2022/09/09 10:46:24;;;;;;;;;;;;;;;;;;5094488;28;19908;-78
2022/09/09 10:48:49;;;;;;;;;;;;;;;;;;5094402;28;19958;-81
2022/09/09 10:51:15;;;;;;;;;;;;;;;;;;5095675;28;20072;-78
2022/09/09 10:53:40;;;;;;;;;;;;;;;;;;5094099;28;19912;-82
2022/09/09 10:56:06;;;;;;;;;;;;;;;;;;5094898;28;19907;-78
2022/09/09 10:58:33;;;;;;;;;;;;;;;;;;5095434;28;20301;-80
2022/09/09 11:01:00;;;;;;;;;;;;;;;;;;5077391;28;20025;-79
2022/09/09 11:03:25;;;;;;;;;;;;;;;;;;5093862;28;19983;-79
2022/09/09 11:05:50;;;;;;;;;;;;;;;;;;5093544;28;20420;-82
2022/09/09 11:08:16;;;;;;;;;;;;;;;;;;5094604;28;19912;-79
2022/09/09 11:10:41;;;;;;;;;;;;;;;;;;5078265;28;20371;-78
2022/09/09 11:13:07;;;;;;;;;;;;;;;;;;5074190;28;19912;-80
2022/09/09 11:15:32;;;;;;;;;;;;;;;;;;5070110;28;19908;-77
2022/09/09 11:17:57;;;;;;;;;;;;;;;;;;5093386;28;19912;-79
2022/09/09 11:20:25;;;;;;;;;;;;;;;;;;5094591;28;19908;-79
2022/09/09 11:22:51;;;;;;;;;;;;;;;;;;5082925;28;19912;-78
2022/09/09 11:25:16;;;;;;;;;;;;;;;;;;5094016;28;19977;-77
2022/09/09 11:27:42;;;;;;;;;;;;;;;;;;5080464;28;19916;-80
2022/09/09 11:30:07;;;;;;;;;;;;;;;;;;5066812;28;20327;-78
2022/09/09 11:32:34;;;;;;;;;;;;;;;;;;5055107;28;19913;-79
2022/09/09 11:35:00;;;;;;;;;;;;;;;;;;5054916;28;19909;-81
2022/09/09 11:37:26;;;;;;;;;;;;;;;;;;5044083;28;19912;-82
2022/09/09 11:39:51;;;;;;;;;;;;;;;;;;5075472;28;19958;-80
2022/09/09 11:42:17;;;;;;;;;;;;;;;;;;5037530;28;19913;-81
2022/09/09 11:44:42;;;;;;;;;;;;;;;;;;5050324;28;20338;-82
2022/09/09 11:47:08;;;;;;;;;;;;;;;;;;5035864;28;19912;-77
2022/09/09 11:49:34;;;;;;;;;;;;;;;;;;5052587;28;19915;-78
2022/09/09 11:51:59;;;;;;;;;;;;;;;;;;5058347;28;19925;-79
2022/09/09 11:54:25;;;;;;;;;;;;;;;;;;5038751;28;19915;-79
2022/09/09 11:56:50;;;;;;;;;;;;;;;;;;5055773;28;20355;-79
2022/09/09 11:59:16;;;;;;;;;;;;;;;;;;5074859;28;19908;-81
2022/09/09 12:01:42;;;;;;;;;;;;;;;;;;5055476;28;19912;-85
2022/09/09 12:04:08;;;;;;;;;;;;;;;;;;5039481;28;19963;-80
2022/09/09 12:06:33;;;;;;;;;;;;;;;;;;5073989;28;20344;-81
2022/09/09 12:08:59;;;;;;;;;;;;;;;;;;5073640;28;19944;-78
2022/09/09 12:11:25;;;;;;;;;;;;;;;;;;5073264;28;20009;-79
2022/09/09 12:13:50;;;;;;;;;;;;;;;;;;5073341;28;20018;-78
2022/09/09 12:16:15;;;;;;;;;;;;;;;;;;5055142;28;19919;-78
2022/09/09 12:18:42;;;;;;;;;;;;;;;;;;5054550;28;20473;-77
2022/09/09 12:21:08;;;;;;;;;;;;;;;;;;5072961;28;19966;-78
2022/09/09 12:23:35;;;;;;;;;;;;;;;;;;5037372;28;19908;-77
2022/09/09 12:26:00;;;;;;;;;;;;;;;;;;5073202;28;19951;-80
2022/09/09 12:28:26;;;;;;;;;;;;;;;;;;5053235;28;20398;-79
2022/09/09 12:30:53;;;;;;;;;;;;;;;;;;5073171;28;19962;-78
2022/09/09 12:33:18;;;;;;;;;;;;;;;;;;5036040;28;20436;-79
2022/09/09 12:35:44;;;;;;;;;;;;;;;;;;5068264;28;19934;-78
2022/09/09 12:38:11;;;;;;;;;;;;;;;;;;5066480;28;19912;-77
2022/09/09 12:40:36;;;;;;;;;;;;;;;;;;5070984;28;19916;-77
2022/09/09 12:43:02;;;;;;;;;;;;;;;;;;5036030;28;19934;-79
2022/09/09 12:45:27;;;;;;;;;;;;;;;;;;5070803;28;20421;-77
2022/09/09 12:47:52;;;;;;;;;;;;;;;;;;5054975;28;19931;-78
2022/09/09 12:50:18;;;;;;;;;;;;;;;;;;5054667;28;20395;-78
2022/09/09 12:52:43;;;;;;;;;;;;;;;;;;5073128;28;19915;-77
2022/09/09 12:55:09;;;;;;;;;;;;;;;;;;5055210;28;19918;-78
2022/09/09 12:57:34;;;;;;;;;;;;;;;;;;5072876;28;20290;-79
2022/09/09 13:00:01;;;;;;;;;;;;;;;;;;5073745;28;19969;-80
2022/09/09 13:02:27;;;;;;;;;;;;;;;;;;5054857;28;20395;-78
2022/09/09 13:05:18;;;;;;;;;;;;;;;;;;5057907;28;19920;-79
2022/09/09 13:07:43;;;;;;;;;;;;;;;;;;5054825;28;19912;-79
2022/09/09 13:10:09;;;;;;;;;;;;;;;;;;5073307;28;19935;-79
2022/09/09 13:12:34;;;;;;;;;;;;;;;;;;5054887;28;19916;-78
2022/09/09 13:15:00;;;;;;;;;;;;;;;;;;5072992;28;19916;-77
2022/09/09 13:17:25;;;;;;;;;;;;;;;;;;5055249;28;20371;-78
2022/09/09 13:19:52;;;;;;;;;;;;;;;;;;5072735;28;19908;-77
2022/09/09 13:22:18;;;;;;;;;;;;;;;;;;5071630;28;19912;-79
2022/09/09 13:24:43;;;;;;;;;;;;;;;;;;5054943;28;19908;-78
2022/09/09 13:27:09;;;;;;;;;;;;;;;;;;5069280;28;19923;-78
2022/09/09 13:29:34;;;;;;;;;;;;;;;;;;5091540;28;19930;-78
2022/09/09 13:32:00;;;;;;;;;;;;;;;;;;5093026;28;20302;-78
2022/09/09 13:34:27;;;;;;;;;;;;;;;;;;5093198;28;20371;-81
2022/09/09 13:36:52;;;;;;;;;;;;;;;;;;5092630;28;19954;-77
2022/09/09 13:39:18;;;;;;;;;;;;;;;;;;5092398;28;19910;-79
2022/09/09 13:41:44;;;;;;;;;;;;;;;;;;5090756;28;20516;-78
2022/09/09 13:44:09;;;;;;;;;;;;;;;;;;5092011;28;19908;-78
2022/09/09 13:46:34;;;;;;;;;;;;;;;;;;5079330;28;19911;-80
2022/09/09 13:49:00;;;;;;;;;;;;;;;;;;5092632;28;19951;-77
2022/09/09 13:51:25;;;;;;;;;;;;;;;;;;5090879;28;20397;-78
2022/09/09 13:53:52;;;;;;;;;;;;;;;;;;5092040;28;19909;-78
2022/09/09 13:56:18;;;;;;;;;;;;;;;;;;5090401;28;20382;-80
2022/09/09 13:58:43;;;;;;;;;;;;;;;;;;5092226;28;19961;-77
2022/09/09 14:01:11;;;;;;;;;;;;;;;;;;5092958;28;20386;-77
2022/09/09 14:03:37;;;;;;;;;;;;;;;;;;5092609;28;19947;-78
2022/09/09 14:06:02;;;;;;;;;;;;;;;;;;5092248;28;20409;-78
2022/09/09 14:08:36;;;;;;;;;;;;;;;;;;5092705;28;19908;-78
2022/09/09 14:11:01;;;;;;;;;;;;;;;;;;5075473;28;19920;-78
2022/09/09 14:13:27;;;;;;;;;;;;;;;;;;5093373;28;19915;-77
2022/09/09 14:15:53;;;;;;;;;;;;;;;;;;5093469;28;19961;-78
2022/09/09 14:18:18;;;;;;;;;;;;;;;;;;5095921;28;19957;-78
2022/09/09 14:20:44;;;;;;;;;;;;;;;;;;5094551;28;19912;-77
2022/09/09 14:23:09;;;;;;;;;;;;;;;;;;5094111;28;20434;-79
2022/09/09 14:25:34;;;;;;;;;;;;;;;;;;5094433;28;19947;-77
2022/09/09 14:28:00;;;;;;;;;;;;;;;;;;5067556;28;20414;-77
2022/09/09 14:30:25;;;;;;;;;;;;;;;;;;5073674;28;19974;-78
2022/09/09 14:32:50;;;;;;;;;;;;;;;;;;5037646;28;19916;-78
2022/09/09 14:35:18;;;;;;;;;;;;;;;;;;5068717;28;20387;-78
2022/09/09 14:37:44;;;;;;;;;;;;;;;;;;5055684;28;19915;-78
2022/09/09 14:40:11;;;;;;;;;;;;;;;;;;5043937;28;20011;-78
2022/09/09 14:42:36;;;;;;;;;;;;;;;;;;5064182;28;19938;-77
2022/09/09 14:45:01;;;;;;;;;;;;;;;;;;5041258;28;19951;-78
2022/09/09 14:47:27;;;;;;;;;;;;;;;;;;5040298;28;20330;-77
2022/09/09 14:49:53;;;;;;;;;;;;;;;;;;5075161;28;19916;-78
2022/09/09 14:52:18;;;;;;;;;;;;;;;;;;5075265;28;20359;-78
2022/09/09 14:54:45;;;;;;;;;;;;;;;;;;5074934;28;19920;-78
2022/09/09 14:57:10;;;;;;;;;;;;;;;;;;5057045;28;19912;-77
2022/09/09 14:59:36;;;;;;;;;;;;;;;;;;5075044;28;19916;-78
2022/09/09 15:02:03;;;;;;;;;;;;;;;;;;5056850;28;20371;-76
2022/09/09 15:04:29;;;;;;;;;;;;;;;;;;5075174;28;20387;-80
2022/09/09 15:06:55;;;;;;;;;;;;;;;;;;5074592;28;20322;-79
2022/09/09 15:09:20;;;;;;;;;;;;;;;;;;5040548;28;19938;-79
2022/09/09 15:11:46;;;;;;;;;;;;;;;;;;5026944;28;19917;-80
2022/09/09 15:14:12;;;;;;;;;;;;;;;;;;5056475;28;19965;-79
2022/09/09 15:16:37;;;;;;;;;;;;;;;;;;5040085;28;19957;-79
2022/09/09 15:19:02;;;;;;;;;;;;;;;;;;5057035;28;19912;-79
2022/09/09 15:21:27;;;;;;;;;;;;;;;;;;5074398;28;19908;-79
2022/09/09 15:23:53;;;;;;;;;;;;;;;;;;5054112;28;20010;-77
2022/09/09 15:26:18;;;;;;;;;;;;;;;;;;5056298;28;20247;-80
2022/09/09 15:28:44;;;;;;;;;;;;;;;;;;5055778;28;19916;-81
2022/09/09 15:31:09;;;;;;;;;;;;;;;;;;5056450;28;19982;-79
2022/09/09 15:33:37;;;;;;;;;;;;;;;;;;5052306;28;19920;-79
2022/09/09 15:36:02;;;;;;;;;;;;;;;;;;5056256;28;19916;-78
2022/09/09 15:38:28;;;;;;;;;;;;;;;;;;5055773;28;19912;-77
2022/09/09 15:40:54;;;;;;;;;;;;;;;;;;5061965;28;19908;-77
2022/09/09 15:43:19;;;;;;;;;;;;;;;;;;5051747;28;19966;-79
2022/09/09 15:45:44;;;;;;;;;;;;;;;;;;5073732;28;19908;-78
2022/09/09 15:48:11;;;;;;;;;;;;;;;;;;5055782;28;19923;-78
2022/09/09 15:50:37;;;;;;;;;;;;;;;;;;5056069;28;19912;-78
2022/09/09 15:53:02;;;;;;;;;;;;;;;;;;5055140;28;19999;-77
2022/09/09 15:55:27;;;;;;;;;;;;;;;;;;5073034;28;19951;-78
2022/09/09 15:57:53;;;;;;;;;;;;;;;;;;5053978;28;19912;-78
2022/09/09 16:00:19;;;;;;;;;;;;;;;;;;5073711;28;19908;-78
2022/09/09 16:02:44;;;;;;;;;;;;;;;;;;5055310;28;19913;-78
2022/09/09 16:05:09;;;;;;;;;;;;;;;;;;5073209;28;19919;-78
2022/09/09 16:07:35;;;;;;;;;;;;;;;;;;5038472;28;20296;-78
2022/09/09 16:10:01;;;;;;;;;;;;;;;;;;5070500;28;20365;-78
2022/09/09 16:12:26;;;;;;;;;;;;;;;;;;5054933;28;20007;-78
2022/09/09 16:14:51;;;;;;;;;;;;;;;;;;5052944;28;19908;-82
2022/09/09 16:17:18;;;;;;;;;;;;;;;;;;5038600;28;19919;-78
2022/09/09 16:19:45;;;;;;;;;;;;;;;;;;5049632;28;20007;-78
2022/09/09 16:22:11;;;;;;;;;;;;;;;;;;5069638;28;19917;-78
2022/09/09 16:24:36;;;;;;;;;;;;;;;;;;5039835;28;19916;-78
2022/09/09 16:27:02;;;;;;;;;;;;;;;;;;5065968;28;20414;-78
2022/09/09 16:29:27;;;;;;;;;;;;;;;;;;5058898;28;19908;-78
2022/09/09 16:31:53;;;;;;;;;;;;;;;;;;5045539;28;19946;-79
2022/09/09 16:34:18;;;;;;;;;;;;;;;;;;5071686;28;20053;-76
2022/09/09 16:36:44;;;;;;;;;;;;;;;;;;5069923;28;20038;-78
2022/09/09 16:39:09;;;;;;;;;;;;;;;;;;5054695;28;19912;-77